This is the latest recevied weather packets stored in our database for station/object AB1AU. If no packets are shown the sender has not sent any weather packets the latest 10 day(s).
| Time | Temp. | Humidity | Pressure | Rain* | Wind** | Luminosity | Snow |
|---|---|---|---|---|---|---|---|
| 1777658007 | 15° C | 43% | 1007.4 hPa | 0 mm | - | 324 W/m² | - |
| 1777657704 | 14.44° C | 43% | 1007.5 hPa | 0 mm | - | 228 W/m² | - |
| 1777657401 | 14.44° C | 44% | 1007.6 hPa | 0 mm | - | 137 W/m² | - |
| 1777657100 | 14.44° C | 42% | 1007.4 hPa | 0 mm | - | 124 W/m² | - |
| 1777656797 | 14.44° C | 44% | 1007.4 hPa | 0 mm | - | 174 W/m² | - |
| 1777656492 | 14.44° C | 46% | 1007.6 hPa | 0 mm | - | 153 W/m² | - |
| 1777656187 | 14.44° C | 44% | 1007.7 hPa | 0 mm | - | 349 W/m² | - |
| 1777655883 | 13.89° C | 45% | 1007.5 hPa | 0 mm | - | 291 W/m² | - |
| 1777655580 | 13.89° C | 46% | 1007.7 hPa | 0 mm | - | 333 W/m² | - |
| 1777655277 | 14.44° C | 45% | 1007.5 hPa | 0 mm | - | 155 W/m² | - |
| 1777654974 | 13.89° C | 46% | 1007.7 hPa | 0 mm | - | 476 W/m² | - |
| 1777654671 | 13.89° C | 46% | 1007.8 hPa | 0 mm | - | 159 W/m² | - |
| 1777654369 | 14.44° C | 46% | 1007.7 hPa | 0 mm | - | 57 W/m² | - |
| 1777654067 | 13.89° C | 49% | 1007.7 hPa | 0 mm | - | 195 W/m² | - |
| 1777653763 | 13.89° C | 46% | 1007.6 hPa | 0 mm | - | 422 W/m² | - |
| 1777653459 | 13.33° C | 49% | 1007.7 hPa | 0 mm | - | 400 W/m² | - |
| 1777653157 | 13.89° C | 47% | 1007.9 hPa | 0 mm | - | 135 W/m² | - |
| 1777652852 | 13.33° C | 49% | 1007.8 hPa | 0 mm | - | 440 W/m² | - |
| 1777652549 | 13.33° C | 50% | 1007.7 hPa | 0 mm | - | 306 W/m² | - |
| 1777652246 | 13.89° C | 51% | 1007.7 hPa | 0 mm | - | 141 W/m² | - |
| 1777651944 | 13.33° C | 50% | 1007.7 hPa | 0 mm | - | 265 W/m² | - |
| 1777651640 | 12.78° C | 54% | 1007.8 hPa | 0 mm | - | 223 W/m² | - |
| 1777651337 | 12.22° C | 57% | 1007.9 hPa | 0 mm | - | 576 W/m² | - |
| 1777651034 | 12.78° C | 55% | 1007.9 hPa | 0 mm | - | 133 W/m² | - |
| 1777650731 | 12.78° C | 55% | 1007.8 hPa | 0 mm | - | 232 W/m² | - |
* Rain latest hour (hover to see other rain measurements)
** Current wind speed in m/s (hover to see current wind gust speed)